F/V Le Mirador — FPHO — position and weather

sailwx.info

Track history (hours):
 
Tides and Currents Weather Stations Pressure Air Temp Water Temp Dewpoint Dewpoint Depression Visibility Wind Speed Wind Dir Waves Ship Positions

F/V Le Mirador

Last reported at 2015-Jan-19 17:33 UTC. Time now 2015-Sep-03 21:33 UTC.
Position N 46°37' W 002°06'.
Warning: this ship's position is months out of date.

Length 19 m; draft 2.8 m.

Type: Fishing. MMSI: 227901000.

Date/timePositionNaut miles runAvg speedWind from/ knotsBaromVisibWave heightAir tempDewpointWater temp
2015-Jan-19 17:33N 46°37' W 002°06'9 9.4
2015-Jan-19 16:33N 46°31' W 001°56'6 6.0
2015-Jan-19 15:33N 46°30' W 001°47'2 2.2
2015-Jan-19 14:33N 46°28' W 001°49'10 9.6
2015-Jan-19 13:33N 46°26' W 002°03'  
2015-Jan-14 17:12N 46°40' W 002°11'6 8.9
2015-Jan-14 16:33N 46°36' W 002°05'9 9.0
2015-Jan-14 15:33N 46°31' W 001°55'5 5.2
2015-Jan-14 14:33N 46°30' W 001°47'4 3.9
2015-Jan-14 13:33N 46°27' W 001°52'9 8.5
2015-Jan-14 12:33N 46°24' W 002°03'8 0.2
2015-Jan-12 22:31N 46°20' W 002°13'6 6.8
2015-Jan-12 21:33N 46°23' W 002°05'7 7.0
2015-Jan-12 20:33N 46°26' W 001°56'7 6.7
2015-Jan-12 19:33N 46°29' W 001°47'1 0.6
2015-Jan-12 18:33N 46°30' W 001°47'1 1.1
2015-Jan-12 17:34N 46°29' W 001°47'9 9.4
2015-Jan-12 16:33N 46°23' W 001°58'  
Track history (hours):
 
Tides and Currents Weather Stations Pressure Air Temp Water Temp Dewpoint Dewpoint Depression Visibility Wind Speed Wind Dir Waves Ship Positions

F/V Le Mirador

Last reported at 2015-Jan-19 17:33 UTC. Time now 2015-Sep-03 21:33 UTC.
Position N 46°37' W 002°06'.
Warning: this ship's position is months out of date.

Length 19 m; draft 2.8 m.

Type: Fishing. MMSI: 227901000.

Date/timePositionNaut miles runAvg speedWind from/ knotsBaromVisibWave heightAir tempDewpointWater temp
2015-Jan-19 17:33N 46°37' W 002°06'9 9.4
2015-Jan-19 16:33N 46°31' W 001°56'6 6.0
2015-Jan-19 15:33N 46°30' W 001°47'2 2.2
2015-Jan-19 14:33N 46°28' W 001°49'10 9.6
2015-Jan-19 13:33N 46°26' W 002°03'  
2015-Jan-14 17:12N 46°40' W 002°11'6 8.9
2015-Jan-14 16:33N 46°36' W 002°05'9 9.0
2015-Jan-14 15:33N 46°31' W 001°55'5 5.2
2015-Jan-14 14:33N 46°30' W 001°47'4 3.9
2015-Jan-14 13:33N 46°27' W 001°52'9 8.5
2015-Jan-14 12:33N 46°24' W 002°03'8 0.2
2015-Jan-12 22:31N 46°20' W 002°13'6 6.8
2015-Jan-12 21:33N 46°23' W 002°05'7 7.0
2015-Jan-12 20:33N 46°26' W 001°56'7 6.7
2015-Jan-12 19:33N 46°29' W 001°47'1 0.6
2015-Jan-12 18:33N 46°30' W 001°47'1 1.1
2015-Jan-12 17:34N 46°29' W 001°47'9 9.4
2015-Jan-12 16:33N 46°23' W 001°58'  

Dump ship's entire track history